createdAt,value
2018-11-04T00:00:24.885Z,23.23
2018-11-04T00:02:53.109Z,23.97
2018-11-04T00:05:21.313Z,21.17
2018-11-04T00:07:50.619Z,28.47
2018-11-04T00:10:18.734Z,23.03
2018-11-04T00:12:46.914Z,24.87
2018-11-04T00:15:15.087Z,24.77
2018-11-04T00:17:43.253Z,21.93
2018-11-04T00:20:13.729Z,23.40
2018-11-04T00:22:41.874Z,21.83
2018-11-04T00:25:11.882Z,25.77
2018-11-04T00:27:40.088Z,19.87
2018-11-04T00:30:10.478Z,23.50
2018-11-04T00:32:38.709Z,22.07
2018-11-04T00:35:07.272Z,23.30
2018-11-04T00:37:35.473Z,30.83
2018-11-04T00:40:03.642Z,25.33
2018-11-04T00:42:31.830Z,22.30
2018-11-04T00:45:00.987Z,22.40
2018-11-04T00:47:29.230Z,22.33
2018-11-04T00:49:57.422Z,24.30
2018-11-04T00:52:25.606Z,23.33
2018-11-04T00:54:53.787Z,22.57
2018-11-04T00:57:21.951Z,24.73
2018-11-04T00:59:50.184Z,25.00
2018-11-04T01:02:18.347Z,24.10
2018-11-04T01:04:46.532Z,20.83
2018-11-04T01:07:14.706Z,19.70
2018-11-04T01:09:42.897Z,23.43
2018-11-04T01:12:11.068Z,23.43
2018-11-04T01:14:39.251Z,25.67
2018-11-04T01:17:07.414Z,23.97
2018-11-04T01:19:35.597Z,23.03
2018-11-04T01:22:03.782Z,23.57
2018-11-04T01:24:31.980Z,24.70
2018-11-04T01:27:00.162Z,21.40
2018-11-04T01:29:28.391Z,21.37
2018-11-04T01:31:56.559Z,24.63
2018-11-04T01:34:24.738Z,22.60
2018-11-04T01:36:52.922Z,21.67
2018-11-04T01:39:21.085Z,22.93
2018-11-04T01:41:49.265Z,25.60
2018-11-04T01:44:17.425Z,23.70
2018-11-04T01:46:45.615Z,22.93
2018-11-04T01:49:13.794Z,19.33
2018-11-04T01:51:41.974Z,24.93
2018-11-04T01:54:10.144Z,24.77
2018-11-04T01:56:38.327Z,26.57
2018-11-04T01:59:06.790Z,21.83
2018-11-04T02:01:35.004Z,23.07
2018-11-04T02:04:03.175Z,24.50
2018-11-04T02:06:31.363Z,22.83
2018-11-04T02:08:59.530Z,23.07
2018-11-04T02:11:27.710Z,20.77
2018-11-04T02:13:55.958Z,26.03
2018-11-04T02:16:24.143Z,21.87
2018-11-04T02:18:52.324Z,22.17
2018-11-04T02:21:20.537Z,20.43
2018-11-04T02:23:48.728Z,19.50
2018-11-04T02:26:16.914Z,23.23
2018-11-04T02:28:45.094Z,21.47
2018-11-04T02:31:13.295Z,26.73
2018-11-04T02:33:41.515Z,22.63
2018-11-04T02:36:09.734Z,28.93
2018-11-04T02:38:37.908Z,21.73
2018-11-04T02:41:06.661Z,25.37
2018-11-04T02:43:34.839Z,25.03
2018-11-04T02:46:03.070Z,23.20
2018-11-04T02:48:31.248Z,21.67
2018-11-04T02:50:59.420Z,18.43
2018-11-04T02:53:27.626Z,22.43
2018-11-04T02:55:55.796Z,22.40
2018-11-04T02:58:23.958Z,22.97
2018-11-04T03:00:52.143Z,27.67
2018-11-04T03:03:20.315Z,26.03
2018-11-04T03:05:48.495Z,23.77
2018-11-04T03:08:16.663Z,22.80
2018-11-04T03:10:44.838Z,27.07
2018-11-04T03:13:13.011Z,23.37
2018-11-04T03:15:41.190Z,23.33
2018-11-04T03:18:09.383Z,23.70
2018-11-04T03:20:37.652Z,25.37
2018-11-04T03:23:05.863Z,20.73
2018-11-04T03:25:34.051Z,19.43
2018-11-04T03:28:02.223Z,23.63
2018-11-04T03:30:30.412Z,21.67
2018-11-04T03:32:58.583Z,25.80
2018-11-04T03:35:26.755Z,23.80
2018-11-04T03:37:54.925Z,21.63
2018-11-04T03:40:23.100Z,24.53
2018-11-04T03:42:51.256Z,22.90
2018-11-04T03:45:19.471Z,25.00
2018-11-04T03:47:47.646Z,20.43
2018-11-04T03:50:15.817Z,20.27
2018-11-04T03:52:43.973Z,20.93
2018-11-04T03:55:12.185Z,23.43
2018-11-04T03:57:40.346Z,19.37
2018-11-04T04:00:10.815Z,23.03
2018-11-04T04:02:39.099Z,22.47
2018-11-04T04:05:08.048Z,20.67
2018-11-04T04:07:36.240Z,24.07
2018-11-04T04:10:05.278Z,24.30
2018-11-04T04:12:33.414Z,22.03
2018-11-04T04:15:01.567Z,21.37
2018-11-04T04:17:29.779Z,21.90
2018-11-04T04:19:57.955Z,23.47
2018-11-04T04:22:26.112Z,23.17
2018-11-04T04:24:54.253Z,23.70
2018-11-04T04:27:22.390Z,20.83
2018-11-04T04:29:50.598Z,20.10
2018-11-04T04:32:18.731Z,22.90
2018-11-04T04:34:46.911Z,23.80
2018-11-04T04:37:15.014Z,22.07
2018-11-04T04:39:43.135Z,24.03
2018-11-04T04:42:11.279Z,21.80
2018-11-04T04:44:39.395Z,24.63
2018-11-04T04:47:07.559Z,22.47
2018-11-04T04:49:35.703Z,24.53
2018-11-04T04:52:03.870Z,23.10
2018-11-04T04:54:32.063Z,27.10
2018-11-04T04:57:00.210Z,24.40
2018-11-04T04:59:28.439Z,23.93
2018-11-04T05:01:56.687Z,22.93
2018-11-04T05:04:24.844Z,25.23
2018-11-04T05:06:52.970Z,27.97
2018-11-04T05:09:21.141Z,23.93
2018-11-04T05:11:49.266Z,26.60
2018-11-04T05:14:17.479Z,23.67
2018-11-04T05:16:45.591Z,24.03
2018-11-04T05:19:13.735Z,23.90
2018-11-04T05:21:41.872Z,24.87
2018-11-04T05:24:10.037Z,25.93
2018-11-04T05:26:38.250Z,24.60
2018-11-04T05:29:06.416Z,22.30
2018-11-04T05:31:34.535Z,24.57
2018-11-04T05:34:02.759Z,24.93
2018-11-04T05:36:30.990Z,24.93
2018-11-04T05:38:59.122Z,23.10
2018-11-04T05:41:27.268Z,27.27
2018-11-04T05:43:55.420Z,27.30
2018-11-04T05:46:23.597Z,20.07
2018-11-04T05:48:51.789Z,26.53
2018-11-04T05:51:19.962Z,25.97
2018-11-04T05:53:48.093Z,25.20
2018-11-04T05:56:16.251Z,23.67
2018-11-04T05:58:44.402Z,27.67
2018-11-04T06:01:12.569Z,27.40
2018-11-04T06:03:40.743Z,26.53
2018-11-04T06:06:08.928Z,27.07
2018-11-04T06:08:37.091Z,32.73
2018-11-04T06:11:05.443Z,29.77
2018-11-04T06:13:33.590Z,30.37
2018-11-04T06:16:01.748Z,31.83
2018-11-04T06:18:29.910Z,27.13
2018-11-04T06:20:58.054Z,29.00
2018-11-04T06:23:26.307Z,26.37
2018-11-04T06:25:54.444Z,33.13
2018-11-04T06:28:22.608Z,32.97
2018-11-04T06:30:50.758Z,26.47
2018-11-04T06:33:18.950Z,22.33
2018-11-04T06:35:47.152Z,27.57
2018-11-04T06:38:15.299Z,31.60
2018-11-04T06:40:43.442Z,28.30
2018-11-04T06:43:11.666Z,26.83
2018-11-04T06:45:39.803Z,32.60
2018-11-04T06:48:07.950Z,33.00
2018-11-04T06:50:36.090Z,30.07
2018-11-04T06:53:04.550Z,32.00
2018-11-04T06:55:32.702Z,24.27
2018-11-04T06:58:00.916Z,28.80
2018-11-04T07:00:29.050Z,29.60
2018-11-04T07:02:57.215Z,28.80
2018-11-04T07:05:25.378Z,32.47
2018-11-04T07:07:53.546Z,29.97
2018-11-04T07:10:21.690Z,31.20
2018-11-04T07:12:49.826Z,30.43
2018-11-04T07:15:17.979Z,34.97
2018-11-04T07:17:46.120Z,33.10
2018-11-04T07:20:14.286Z,33.57
2018-11-04T07:22:42.467Z,29.37
2018-11-04T07:25:10.625Z,35.93
2018-11-04T07:27:38.770Z,27.93
2018-11-04T07:30:08.352Z,29.50
2018-11-04T07:32:36.495Z,36.73
2018-11-04T07:35:04.934Z,33.20
2018-11-04T07:37:33.073Z,34.73
2018-11-04T07:40:01.231Z,33.87
2018-11-04T07:42:29.376Z,29.50
2018-11-04T07:44:57.527Z,34.60
2018-11-04T07:47:25.759Z,29.23
2018-11-04T07:49:53.910Z,36.63
2018-11-04T07:52:22.054Z,37.10
2018-11-04T07:54:50.206Z,32.23
2018-11-04T07:57:18.348Z,31.00
2018-11-04T07:59:46.497Z,33.50
2018-11-04T08:02:14.657Z,29.47
2018-11-04T08:04:42.835Z,34.57
2018-11-04T08:07:10.983Z,35.20
2018-11-04T08:09:39.148Z,32.63
2018-11-04T08:12:07.354Z,32.57
2018-11-04T08:14:35.546Z,32.60
2018-11-04T08:17:03.790Z,36.57
2018-11-04T08:19:32.224Z,32.80
2018-11-04T08:22:00.386Z,39.30
2018-11-04T08:24:28.591Z,32.70
2018-11-04T08:26:56.731Z,34.40
2018-11-04T08:29:24.910Z,35.93
2018-11-04T08:31:53.050Z,29.93
2018-11-04T08:34:21.239Z,39.83
2018-11-04T08:36:49.379Z,40.97
2018-11-04T08:39:17.648Z,38.53
2018-11-04T08:41:45.834Z,36.10
2018-11-04T08:44:14.034Z,40.87
2018-11-04T08:46:42.231Z,40.87
2018-11-04T08:49:10.374Z,38.93
2018-11-04T08:51:38.599Z,35.67
2018-11-04T08:54:06.742Z,40.07
2018-11-04T08:56:34.915Z,33.93
2018-11-04T08:59:03.092Z,33.67
2018-11-04T09:01:31.195Z,35.70
2018-11-04T09:03:59.375Z,34.50
2018-11-04T09:06:27.520Z,31.63
2018-11-04T09:08:56.014Z,32.40
2018-11-04T09:11:24.185Z,32.27
2018-11-04T09:13:52.368Z,27.80
2018-11-04T09:16:20.490Z,30.47
2018-11-04T09:18:48.633Z,33.63
2018-11-04T09:21:16.792Z,38.40
2018-11-04T09:23:45.053Z,30.20
2018-11-04T09:26:13.167Z,34.37
2018-11-04T09:28:41.418Z,33.43
2018-11-04T09:31:09.740Z,30.17
2018-11-04T09:33:38.255Z,37.83
2018-11-04T09:36:06.492Z,35.27
2018-11-04T09:38:34.545Z,35.53
2018-11-04T09:41:02.700Z,35.17
2018-11-04T09:43:31.206Z,31.73
2018-11-04T09:45:59.447Z,36.83
2018-11-04T09:48:27.570Z,34.13
2018-11-04T09:50:55.715Z,34.13
2018-11-04T09:53:23.860Z,32.90
2018-11-04T09:55:52.027Z,34.00
2018-11-04T09:58:20.182Z,34.27
2018-11-04T10:00:48.441Z,35.87
2018-11-04T10:03:16.574Z,36.93
2018-11-04T10:05:44.783Z,37.90
2018-11-04T10:08:12.943Z,35.43
2018-11-04T10:10:41.181Z,38.90
2018-11-04T10:13:09.359Z,38.77
2018-11-04T10:15:37.831Z,37.53
2018-11-04T10:18:05.974Z,40.63
2018-11-04T10:20:34.540Z,41.40
2018-11-04T10:23:02.302Z,33.37
2018-11-04T10:25:30.533Z,31.80
2018-11-04T10:27:58.740Z,33.33
2018-11-04T10:30:26.882Z,35.63
2018-11-04T10:32:55.080Z,37.47
2018-11-04T10:35:23.223Z,36.37
2018-11-04T10:37:51.438Z,32.37
2018-11-04T10:40:19.639Z,36.83
2018-11-04T10:42:47.845Z,33.03
2018-11-04T10:45:16.058Z,37.40
2018-11-04T10:47:44.242Z,40.03
2018-11-04T10:50:13.035Z,38.10
2018-11-04T10:52:41.391Z,37.60
2018-11-04T10:55:10.429Z,36.13
2018-11-04T10:57:38.659Z,35.93
2018-11-04T11:00:12.942Z,35.27
2018-11-04T11:02:41.151Z,34.17
2018-11-04T11:05:09.397Z,34.27
2018-11-04T11:07:37.718Z,38.87
2018-11-04T11:10:06.991Z,30.90
2018-11-04T11:12:35.151Z,31.73
2018-11-04T11:15:03.350Z,31.47
2018-11-04T11:17:31.735Z,33.77
2018-11-04T11:19:59.883Z,38.00
2018-11-04T11:22:28.199Z,33.60
2018-11-04T11:24:56.377Z,36.17
2018-11-04T11:27:24.523Z,35.40
2018-11-04T11:29:52.741Z,30.50
2018-11-04T11:32:20.905Z,32.23
2018-11-04T11:34:49.068Z,38.97
2018-11-04T11:37:17.291Z,41.57
2018-11-04T11:39:45.395Z,31.73
2018-11-04T11:42:13.567Z,34.23
2018-11-04T11:44:42.706Z,32.30
2018-11-04T11:47:10.875Z,28.70
2018-11-04T11:49:39.466Z,35.37
2018-11-04T11:52:07.622Z,31.90
2018-11-04T11:54:35.790Z,31.27
2018-11-04T11:57:03.954Z,28.77
2018-11-04T11:59:32.111Z,34.03
2018-11-04T12:02:00.304Z,41.65
2018-11-04T12:04:28.480Z,39.97
2018-11-04T12:06:56.663Z,33.67
2018-11-04T12:09:24.827Z,30.70
2018-11-04T12:11:53.006Z,34.60
2018-11-04T12:14:21.179Z,29.98
2018-11-04T12:16:49.406Z,44.13
2018-11-04T12:19:17.542Z,39.20
2018-11-04T12:21:45.802Z,33.42
2018-11-04T12:24:14.027Z,41.85
2018-11-04T12:26:42.186Z,31.07
2018-11-04T12:29:10.384Z,36.10
2018-11-04T12:31:38.575Z,32.60
2018-11-04T12:34:06.843Z,34.55
2018-11-04T12:36:35.015Z,36.85
2018-11-04T12:39:03.566Z,35.48
2018-11-04T12:41:31.736Z,39.80
2018-11-04T12:43:59.880Z,36.60
2018-11-04T12:46:28.110Z,32.35
2018-11-04T12:48:56.252Z,38.45
2018-11-04T12:51:24.474Z,35.55
2018-11-04T12:53:52.625Z,30.60
2018-11-04T12:56:20.784Z,40.12
2018-11-04T12:58:48.926Z,31.73
2018-11-04T13:01:17.122Z,34.45
2018-11-04T13:03:45.298Z,33.38
2018-11-04T13:06:13.499Z,28.20
2018-11-04T13:08:41.669Z,30.27
2018-11-04T13:11:09.860Z,27.67
2018-11-04T13:13:38.042Z,24.55
2018-11-04T13:16:06.243Z,32.40
2018-11-04T13:18:34.410Z,34.73
2018-11-04T13:21:02.633Z,39.25
2018-11-04T13:23:30.847Z,31.30
2018-11-04T13:25:59.030Z,31.82
2018-11-04T13:28:27.186Z,28.02
2018-11-04T13:30:55.342Z,30.62
2018-11-04T13:33:23.526Z,44.33
2018-11-04T13:35:51.746Z,31.00
2018-11-04T13:38:19.857Z,39.30
2018-11-04T13:40:48.026Z,39.40
2018-11-04T13:43:16.237Z,32.13
2018-11-04T13:45:44.417Z,30.82
2018-11-04T13:48:12.566Z,31.37
2018-11-04T13:50:40.744Z,39.75
2018-11-04T13:53:08.938Z,44.50
2018-11-04T13:55:37.180Z,36.50
2018-11-04T13:58:05.461Z,38.00
2018-11-04T14:00:33.657Z,33.10
2018-11-04T14:03:01.900Z,34.92
2018-11-04T14:05:29.990Z,32.83
2018-11-04T14:07:58.174Z,32.85
2018-11-04T14:10:26.341Z,33.45
2018-11-04T14:12:54.560Z,35.20
2018-11-04T14:15:22.674Z,35.52
2018-11-04T14:17:50.946Z,38.17
2018-11-04T14:20:19.110Z,44.50
2018-11-04T14:22:47.275Z,34.55
2018-11-04T14:25:15.427Z,34.58
2018-11-04T14:27:43.596Z,26.82
2018-11-04T14:30:14.399Z,38.90
2018-11-04T14:32:42.923Z,40.12
2018-11-04T14:35:11.729Z,37.15
2018-11-04T14:37:40.911Z,40.03
2018-11-04T14:40:11.210Z,37.75
2018-11-04T14:42:40.222Z,45.15
2018-11-04T14:45:08.462Z,40.73
2018-11-04T14:47:37.078Z,39.35
2018-11-04T14:50:07.895Z,38.02
2018-11-04T14:52:36.119Z,40.75
2018-11-04T14:55:05.046Z,42.15
2018-11-04T14:57:33.247Z,42.62
2018-11-04T15:00:01.411Z,32.78
2018-11-04T15:02:29.629Z,37.73
2018-11-04T15:04:57.852Z,34.20
2018-11-04T15:07:26.035Z,29.75
2018-11-04T15:09:54.232Z,35.00
2018-11-04T15:12:22.391Z,37.70
2018-11-04T15:14:50.542Z,30.23
2018-11-04T15:17:18.702Z,43.95
2018-11-04T15:19:46.870Z,47.90
2018-11-04T15:22:15.044Z,53.33
2018-11-04T15:24:43.315Z,63.80
2018-11-04T15:27:11.418Z,57.62
2018-11-04T15:29:39.587Z,43.25
2018-11-04T15:32:07.766Z,49.10
2018-11-04T15:34:36.034Z,46.83
2018-11-04T15:37:04.107Z,50.10
2018-11-04T15:39:32.295Z,47.48
2018-11-04T15:42:00.455Z,45.80
2018-11-04T15:44:28.606Z,45.83
2018-11-04T15:46:56.754Z,45.12
2018-11-04T15:49:24.942Z,42.83
2018-11-04T15:51:53.135Z,42.15
2018-11-04T15:54:21.288Z,37.53
2018-11-04T15:56:49.435Z,38.55
2018-11-04T15:59:17.630Z,49.48
2018-11-04T16:01:45.808Z,45.23
2018-11-04T16:04:14.030Z,42.40
2018-11-04T16:06:42.147Z,42.93
2018-11-04T16:09:10.370Z,45.67
2018-11-04T16:11:38.515Z,46.73
2018-11-04T16:14:06.660Z,47.48
2018-11-04T16:16:34.819Z,47.83
2018-11-04T16:19:03.021Z,45.90
2018-11-04T16:21:31.175Z,41.98
2018-11-04T16:23:59.459Z,47.15
2018-11-04T16:26:27.607Z,48.33
2018-11-04T16:28:55.842Z,47.38
2018-11-04T16:31:24.019Z,45.67
2018-11-04T16:33:52.223Z,40.90
2018-11-04T16:36:20.387Z,38.63
2018-11-04T16:38:48.558Z,42.25
2018-11-04T16:41:16.744Z,48.48
2018-11-04T16:43:44.898Z,50.15
2018-11-04T16:46:13.066Z,48.20
2018-11-04T16:48:41.214Z,48.78
2018-11-04T16:51:09.383Z,51.70
2018-11-04T16:53:37.533Z,43.25
2018-11-04T16:56:06.072Z,44.83
2018-11-04T16:58:34.200Z,38.45
2018-11-04T17:01:02.351Z,37.70
2018-11-04T17:03:30.539Z,46.42
2018-11-04T17:05:58.715Z,50.78
2018-11-04T17:08:26.866Z,43.52
2018-11-04T17:10:55.039Z,44.55
2018-11-04T17:13:23.211Z,47.05
2018-11-04T17:15:51.406Z,40.88
2018-11-04T17:18:19.596Z,45.10
2018-11-04T17:20:47.711Z,44.18
2018-11-04T17:23:15.890Z,48.33
2018-11-04T17:25:44.046Z,48.63
2018-11-04T17:28:12.191Z,51.18
2018-11-04T17:30:40.351Z,36.98
2018-11-04T17:33:08.508Z,43.13
2018-11-04T17:35:36.655Z,48.83
2018-11-04T17:38:04.895Z,42.30
2018-11-04T17:40:33.034Z,46.60
2018-11-04T17:43:01.195Z,43.58
2018-11-04T17:45:29.357Z,46.05
2018-11-04T17:47:58.638Z,34.63
2018-11-04T17:50:26.771Z,43.50
2018-11-04T17:52:54.982Z,43.92
2018-11-04T17:55:23.138Z,41.95
2018-11-04T17:57:51.312Z,42.48
2018-11-04T18:00:19.523Z,38.98
2018-11-04T18:02:47.687Z,37.93
2018-11-04T18:05:15.940Z,42.30
2018-11-04T18:07:44.398Z,44.20
2018-11-04T18:10:13.321Z,40.17
2018-11-04T18:12:41.541Z,37.20
2018-11-04T18:15:10.431Z,45.43
2018-11-04T18:17:38.604Z,33.70
2018-11-04T18:20:07.931Z,39.67
2018-11-04T18:22:36.158Z,37.42
2018-11-04T18:25:04.548Z,34.63
2018-11-04T18:27:32.703Z,39.70
2018-11-04T18:30:00.886Z,34.53
2018-11-04T18:32:29.051Z,27.93
2018-11-04T18:34:57.211Z,30.27
2018-11-04T18:37:25.411Z,35.13
2018-11-04T18:39:53.578Z,37.83
2018-11-04T18:42:21.746Z,35.33
2018-11-04T18:44:49.925Z,34.13
2018-11-04T18:47:18.079Z,34.27
2018-11-04T18:49:46.269Z,30.77
2018-11-04T18:52:14.460Z,28.98
2018-11-04T18:54:42.582Z,26.70
2018-11-04T18:57:10.730Z,34.35
2018-11-04T18:59:38.883Z,29.57
2018-11-04T19:02:07.026Z,31.62
2018-11-04T19:04:35.195Z,30.60
2018-11-04T19:07:03.391Z,27.27
2018-11-04T19:09:31.543Z,30.57
2018-11-04T19:11:59.728Z,24.02
2018-11-04T19:14:27.890Z,27.50
2018-11-04T19:16:56.047Z,33.75
2018-11-04T19:19:24.219Z,27.55
2018-11-04T19:21:52.359Z,30.68
2018-11-04T19:24:20.525Z,30.32
2018-11-04T19:26:48.703Z,29.77
2018-11-04T19:29:16.870Z,31.00
2018-11-04T19:31:45.054Z,27.50
2018-11-04T19:34:13.201Z,18.95
2018-11-04T19:36:41.359Z,25.65
2018-11-04T19:39:10.708Z,24.15
2018-11-04T19:41:38.996Z,32.53
2018-11-04T19:44:07.226Z,34.45
2018-11-04T19:46:35.634Z,31.20
2018-11-04T19:49:03.772Z,22.77
2018-11-04T19:51:31.944Z,20.30
2018-11-04T19:54:00.106Z,26.05
2018-11-04T19:56:28.312Z,19.52
2018-11-04T19:58:56.486Z,22.55
2018-11-04T20:01:24.583Z,26.57
2018-11-04T20:03:52.724Z,31.23
2018-11-04T20:06:20.954Z,25.95
2018-11-04T20:08:54.567Z,22.77
2018-11-04T20:11:22.738Z,19.00
2018-11-04T20:13:56.398Z,19.48
2018-11-04T20:16:24.559Z,23.90
2018-11-04T20:18:58.426Z,23.50
2018-11-04T20:21:26.585Z,19.82
2018-11-04T20:23:54.759Z,20.12
2018-11-04T20:26:22.932Z,18.80
2018-11-04T20:28:51.096Z,19.80
2018-11-04T20:31:24.494Z,16.30
2018-11-04T20:33:52.668Z,22.77
2018-11-04T20:36:20.773Z,15.35
2018-11-04T20:38:54.450Z,22.37
2018-11-04T20:41:30.544Z,22.10
2018-11-04T20:43:58.986Z,16.85
2018-11-04T20:46:27.124Z,14.65
2018-11-04T20:49:00.783Z,13.85
2018-11-04T20:51:29.006Z,20.85
2018-11-04T20:53:57.129Z,19.10
2018-11-04T20:56:30.675Z,18.42
2018-11-04T20:58:58.842Z,18.82
2018-11-04T21:01:26.992Z,14.50
2018-11-04T21:03:55.274Z,23.67
2018-11-04T21:06:23.431Z,21.25
2018-11-04T21:08:51.579Z,20.08
2018-11-04T21:11:19.720Z,17.98
2018-11-04T21:13:47.878Z,14.13
2018-11-04T21:16:16.043Z,18.20
2018-11-04T21:18:44.182Z,15.70
2018-11-04T21:21:12.324Z,14.47
2018-11-04T21:23:40.484Z,15.43
2018-11-04T21:26:08.858Z,15.45
2018-11-04T21:28:37.184Z,12.90
2018-11-04T21:31:05.220Z,12.47
2018-11-04T21:33:33.355Z,18.17
2018-11-04T21:36:01.520Z,17.57
2018-11-04T21:38:29.724Z,19.10
2018-11-04T21:40:57.960Z,13.40
2018-11-04T21:43:26.415Z,18.02
2018-11-04T21:45:54.250Z,14.30
2018-11-04T21:48:22.413Z,19.48
2018-11-04T21:50:50.566Z,15.75
2018-11-04T21:53:18.720Z,19.10
2018-11-04T21:55:47.207Z,17.57
2018-11-04T21:58:15.958Z,19.02
2018-11-04T22:00:44.094Z,18.15
2018-11-04T22:03:12.408Z,21.42
2018-11-04T22:05:40.430Z,16.40
2018-11-04T22:08:08.599Z,18.12
2018-11-04T22:10:36.817Z,18.73
2018-11-04T22:13:05.059Z,21.35
2018-11-04T22:15:33.202Z,20.08
2018-11-04T22:18:01.381Z,19.73
2018-11-04T22:20:29.532Z,14.80
2018-11-04T22:22:57.683Z,18.98
2018-11-04T22:25:26.190Z,22.20
2018-11-04T22:27:54.358Z,18.85
2018-11-04T22:30:22.498Z,13.32
2018-11-04T22:32:50.649Z,20.75
2018-11-04T22:35:18.836Z,17.05
2018-11-04T22:37:47.006Z,21.07
2018-11-04T22:40:15.248Z,18.62
2018-11-04T22:42:43.380Z,18.05
2018-11-04T22:45:12.370Z,19.52
2018-11-04T22:47:41.354Z,20.08
2018-11-04T22:50:11.914Z,18.20
2018-11-04T22:52:40.667Z,16.15
2018-11-04T22:55:08.831Z,20.35
2018-11-04T22:57:36.995Z,18.15
2018-11-04T23:00:06.191Z,18.67
2018-11-04T23:02:34.334Z,17.63
2018-11-04T23:05:08.029Z,17.82
2018-11-04T23:07:36.176Z,19.87
2018-11-04T23:10:05.151Z,17.23
2018-11-04T23:12:33.301Z,20.65
2018-11-04T23:15:01.487Z,19.53
2018-11-04T23:17:29.636Z,18.03
2018-11-04T23:19:57.790Z,19.67
2018-11-04T23:22:25.977Z,21.00
2018-11-04T23:24:54.166Z,19.13
2018-11-04T23:27:22.326Z,21.83
2018-11-04T23:29:50.487Z,17.40
2018-11-04T23:32:18.679Z,19.33
2018-11-04T23:34:46.831Z,20.70
2018-11-04T23:37:14.978Z,18.40
2018-11-04T23:39:43.137Z,18.67
2018-11-04T23:42:11.323Z,21.50
2018-11-04T23:44:39.478Z,20.52
2018-11-04T23:47:07.639Z,19.17
2018-11-04T23:49:35.788Z,16.97
2018-11-04T23:52:04.016Z,19.17
2018-11-04T23:54:32.192Z,16.20
2018-11-04T23:57:00.439Z,19.93
2018-11-04T23:59:28.610Z,20.30
